Time,TemperatureF,DewpointF,PressureIn,WindDirection,WindDirectionDegrees,WindSpeedMPH,WindSpeedGustMPH,Humidity,HourlyPrecipIn,Conditions,Clouds,dailyrainin,SoftwareType,DateUTC
2013-08-17 00:04:00,61.9,54.6,30.18,NNE,22,0.0,0.0,77,0.00,,,0.00,WUHU21623XXSP,2013-08-17 05:04:00,
2013-08-17 00:09:00,61.7,54.4,30.18,NNE,22,0.0,0.0,78,0.00,,,0.00,WUHU21623XXSP,2013-08-17 05:09:00,
2013-08-17 00:14:00,61.5,54.6,30.18,NNE,22,0.0,0.0,78,0.00,,,0.00,WUHU21623XXSP,2013-08-17 05:14:00,
2013-08-17 00:19:00,61.5,54.6,30.18,NNE,22,0.0,0.0,78,0.00,,,0.00,WUHU21623XXSP,2013-08-17 05:19:00,
2013-08-17 00:24:00,61.5,54.6,30.18,NNE,22,0.0,0.0,78,0.00,,,0.00,WUHU21623XXSP,2013-08-17 05:24:00,
2013-08-17 00:29:00,61.5,54.6,30.18,NNE,22,0.0,0.0,78,0.00,,,0.00,WUHU21623XXSP,2013-08-17 05:29:00,
2013-08-17 00:34:00,61.3,54.8,30.18,NNE,22,0.0,0.0,79,0.00,,,0.00,WUHU21623XXSP,2013-08-17 05:34:00,
2013-08-17 00:39:00,61.0,54.5,30.18,NNE,22,0.0,0.0,79,0.00,,,0.00,WUHU21623XXSP,2013-08-17 05:39:00,
2013-08-17 00:44:00,60.6,53.8,30.18,NNE,22,0.0,0.0,78,0.00,,,0.00,WUHU21623XXSP,2013-08-17 05:44:00,
2013-08-17 00:49:00,60.6,54.1,30.18,NNE,22,0.0,0.0,79,0.00,,,0.00,WUHU21623XXSP,2013-08-17 05:49:00,
2013-08-17 00:54:00,60.1,53.6,30.18,NNE,22,0.0,0.0,79,0.00,,,0.00,WUHU21623XXSP,2013-08-17 05:54:00,
2013-08-17 00:59:00,60.1,53.6,30.18,NNE,22,0.0,0.0,79,0.00,,,0.00,WUHU21623XXSP,2013-08-17 05:59:00,
2013-08-17 01:04:00,60.1,53.6,30.18,NNE,22,0.0,0.0,79,0.00,,,0.00,WUHU21623XXSP,2013-08-17 06:04:00,
2013-08-17 01:09:00,59.7,53.6,30.18,NNE,22,0.0,0.0,80,0.00,,,0.00,WUHU21623XXSP,2013-08-17 06:09:00,
2013-08-17 01:14:00,59.5,53.6,30.18,NNE,22,0.0,0.0,80,0.00,,,0.00,WUHU21623XXSP,2013-08-17 06:14:00,
2013-08-17 01:19:00,59.5,53.4,30.18,NNE,22,0.0,0.0,80,0.00,,,0.00,WUHU21623XXSP,2013-08-17 06:19:00,
2013-08-17 01:24:00,59.5,53.4,30.18,NNE,22,0.0,0.0,80,0.00,,,0.00,WUHU21623XXSP,2013-08-17 06:24:00,
2013-08-17 01:29:00,59.4,53.2,30.18,NNE,22,0.0,0.0,80,0.00,,,0.00,WUHU21623XXSP,2013-08-17 06:29:00,
2013-08-17 01:34:00,59.2,53.4,30.18,NNE,22,0.0,0.0,81,0.00,,,0.00,WUHU21623XXSP,2013-08-17 06:34:00,
2013-08-17 01:39:00,59.2,53.4,30.18,NNE,22,0.0,0.0,81,0.00,,,0.00,WUHU21623XXSP,2013-08-17 06:39:00,
2013-08-17 01:44:00,59.2,53.7,30.18,NNE,22,0.0,0.0,82,0.00,,,0.00,WUHU21623XXSP,2013-08-17 06:44:00,
2013-08-17 01:49:00,59.2,53.7,30.18,NNE,22,0.0,0.0,82,0.00,,,0.00,WUHU21623XXSP,2013-08-17 06:49:00,
2013-08-17 01:54:00,58.8,53.3,30.18,NNE,22,0.0,0.0,82,0.00,,,0.00,WUHU21623XXSP,2013-08-17 06:54:00,
2013-08-17 01:59:00,58.8,53.3,30.18,NNE,22,0.0,0.0,82,0.00,,,0.00,WUHU21623XXSP,2013-08-17 06:59:00,
2013-08-17 02:04:00,58.8,53.3,30.17,NNE,22,0.0,0.0,82,0.00,,,0.00,WUHU21623XXSP,2013-08-17 07:04:00,
2013-08-17 02:09:00,58.6,53.2,30.17,NNE,22,0.0,0.0,82,0.00,,,0.00,WUHU21623XXSP,2013-08-17 07:09:00,
2013-08-17 02:14:00,58.3,53.0,30.17,NNE,22,0.0,0.0,82,0.00,,,0.00,WUHU21623XXSP,2013-08-17 07:14:00,
2013-08-17 02:19:00,58.3,53.1,30.17,NNE,22,0.0,0.0,83,0.00,,,0.00,WUHU21623XXSP,2013-08-17 07:19:00,
2013-08-17 02:24:00,58.1,53.0,30.18,NNE,22,0.0,0.0,83,0.00,,,0.00,WUHU21623XXSP,2013-08-17 07:24:00,
2013-08-17 02:29:00,57.9,52.8,30.17,NNE,22,0.0,0.0,83,0.00,,,0.00,WUHU21623XXSP,2013-08-17 07:29:00,
2013-08-17 02:34:00,57.9,52.8,30.17,NNE,22,0.0,0.0,83,0.00,,,0.00,WUHU21623XXSP,2013-08-17 07:34:00,
2013-08-17 02:39:00,57.9,52.8,30.18,NNE,22,0.0,0.0,83,0.00,,,0.00,WUHU21623XXSP,2013-08-17 07:39:00,
2013-08-17 02:44:00,57.9,52.8,30.18,NNE,22,0.0,0.0,83,0.00,,,0.00,WUHU21623XXSP,2013-08-17 07:44:00,
2013-08-17 02:49:00,57.9,52.8,30.18,NNE,22,0.0,0.0,83,0.00,,,0.00,WUHU21623XXSP,2013-08-17 07:49:00,
2013-08-17 02:54:00,57.7,52.6,30.18,NNE,22,0.0,0.0,83,0.00,,,0.00,WUHU21623XXSP,2013-08-17 07:54:00,
2013-08-17 02:59:00,57.7,52.6,30.18,NNE,22,0.0,0.0,83,0.00,,,0.00,WUHU21623XXSP,2013-08-17 07:59:00,
2013-08-17 03:04:00,57.6,52.4,30.18,NNE,22,0.0,0.0,83,0.00,,,0.00,WUHU21623XXSP,2013-08-17 08:04:00,
2013-08-17 03:09:00,57.4,52.2,30.18,NNE,22,0.0,0.0,83,0.00,,,0.00,WUHU21623XXSP,2013-08-17 08:09:00,
2013-08-17 03:14:00,57.4,52.6,30.18,NNE,22,0.0,0.0,84,0.00,,,0.00,WUHU21623XXSP,2013-08-17 08:14:00,
2013-08-17 03:19:00,57.0,52.2,30.18,NNE,22,0.0,0.0,84,0.00,,,0.00,WUHU21623XXSP,2013-08-17 08:19:00,
2013-08-17 03:24:00,57.0,52.2,30.18,NNE,22,0.0,0.0,84,0.00,,,0.00,WUHU21623XXSP,2013-08-17 08:24:00,
2013-08-17 03:29:00,57.0,52.2,30.18,NNE,22,0.0,0.0,84,0.00,,,0.00,WUHU21623XXSP,2013-08-17 08:29:00,
2013-08-17 03:34:00,57.0,52.2,30.18,NNE,22,0.0,0.0,84,0.00,,,0.00,WUHU21623XXSP,2013-08-17 08:34:00,
2013-08-17 03:39:00,56.8,52.0,30.18,NNE,22,0.0,0.0,84,0.00,,,0.00,WUHU21623XXSP,2013-08-17 08:39:00,
2013-08-17 03:44:00,56.8,52.0,30.18,NNE,22,0.0,0.0,84,0.00,,,0.00,WUHU21623XXSP,2013-08-17 08:44:00,
2013-08-17 03:49:00,56.5,51.7,30.18,NNE,22,0.0,0.0,84,0.00,,,0.00,WUHU21623XXSP,2013-08-17 08:49:00,
2013-08-17 03:54:00,56.5,51.7,30.18,NNE,22,0.0,0.0,84,0.00,,,0.00,WUHU21623XXSP,2013-08-17 08:54:00,
2013-08-17 03:59:00,56.5,51.7,30.18,NNE,22,0.0,0.0,84,0.00,,,0.00,WUHU21623XXSP,2013-08-17 08:59:00,
2013-08-17 04:04:00,56.5,51.7,30.18,NNE,22,0.0,0.0,84,0.00,,,0.00,WUHU21623XXSP,2013-08-17 09:04:00,
2013-08-17 04:09:00,56.3,51.5,30.18,NNE,22,0.0,0.0,84,0.00,,,0.00,WUHU21623XXSP,2013-08-17 09:09:00,
2013-08-17 04:14:00,56.1,51.3,30.18,NNE,22,0.0,0.0,84,0.00,,,0.00,WUHU21623XXSP,2013-08-17 09:14:00,
2013-08-17 04:19:00,56.1,51.3,30.18,NNE,22,0.0,0.0,84,0.00,,,0.00,WUHU21623XXSP,2013-08-17 09:19:00,
2013-08-17 04:24:00,56.1,51.6,30.18,NNE,22,0.0,0.0,85,0.00,,,0.00,WUHU21623XXSP,2013-08-17 09:24:00,
2013-08-17 04:29:00,55.9,51.4,30.18,NNE,22,0.0,0.0,85,0.00,,,0.00,WUHU21623XXSP,2013-08-17 09:29:00,
2013-08-17 04:34:00,55.9,51.4,30.17,NNE,22,0.0,0.0,85,0.00,,,0.00,WUHU21623XXSP,2013-08-17 09:34:00,
2013-08-17 04:39:00,55.9,51.4,30.17,NNE,22,0.0,0.0,85,0.00,,,0.00,WUHU21623XXSP,2013-08-17 09:39:00,
2013-08-17 04:44:00,55.9,51.4,30.17,NNE,22,0.0,0.0,85,0.00,,,0.00,WUHU21623XXSP,2013-08-17 09:44:00,
2013-08-17 04:49:00,55.9,51.4,30.17,NNE,22,0.0,0.0,85,0.00,,,0.00,WUHU21623XXSP,2013-08-17 09:49:00,
2013-08-17 04:54:00,55.9,51.4,30.17,NNE,22,0.0,0.0,85,0.00,,,0.00,WUHU21623XXSP,2013-08-17 09:54:00,
2013-08-17 04:59:00,55.9,51.4,30.17,NNE,22,0.0,0.0,85,0.00,,,0.00,WUHU21623XXSP,2013-08-17 09:59:00,
2013-08-17 05:04:00,55.9,51.4,30.17,NNE,22,0.0,0.0,85,0.00,,,0.00,WUHU21623XXSP,2013-08-17 10:04:00,
2013-08-17 05:09:00,55.9,51.4,30.17,NNE,22,0.0,0.0,85,0.00,,,0.00,WUHU21623XXSP,2013-08-17 10:09:00,
2013-08-17 05:14:00,55.9,51.4,30.17,NNE,22,0.0,0.0,85,0.00,,,0.00,WUHU21623XXSP,2013-08-17 10:14:00,
2013-08-17 05:19:00,55.9,51.4,30.17,NNE,22,0.0,0.0,85,0.00,,,0.00,WUHU21623XXSP,2013-08-17 10:19:00,
2013-08-17 05:24:00,55.9,51.4,30.17,NNE,22,0.0,0.0,85,0.00,,,0.00,WUHU21623XXSP,2013-08-17 10:24:00,
2013-08-17 05:29:00,55.9,51.4,30.17,NNE,22,0.0,0.0,85,0.00,,,0.00,WUHU21623XXSP,2013-08-17 10:29:00,
2013-08-17 05:34:00,56.1,51.6,30.17,NNE,22,0.0,0.0,85,0.00,,,0.00,WUHU21623XXSP,2013-08-17 10:34:00,
2013-08-17 05:39:00,56.3,51.8,30.18,NNE,22,0.0,0.0,85,0.00,,,0.00,WUHU21623XXSP,2013-08-17 10:39:00,
2013-08-17 05:44:00,56.3,51.8,30.18,NNE,22,0.0,0.0,85,0.00,,,0.00,WUHU21623XXSP,2013-08-17 10:44:00,
2013-08-17 05:49:00,56.5,52.0,30.17,NNE,22,0.0,0.0,85,0.00,,,0.00,WUHU21623XXSP,2013-08-17 10:49:00,
2013-08-17 05:54:00,56.3,51.8,30.18,NNE,22,0.0,0.0,85,0.00,,,0.00,WUHU21623XXSP,2013-08-17 10:54:00,
2013-08-17 05:59:00,56.1,51.6,30.18,NNE,22,0.0,0.0,85,0.00,,,0.00,WUHU21623XXSP,2013-08-17 10:59:00,
2013-08-17 06:04:00,55.9,51.4,30.18,NNE,22,0.0,0.0,85,0.00,,,0.00,WUHU21623XXSP,2013-08-17 11:04:00,
2013-08-17 06:09:00,55.8,51.3,30.18,NNE,22,0.0,0.0,85,0.00,,,0.00,WUHU21623XXSP,2013-08-17 11:09:00,
2013-08-17 06:14:00,55.6,51.1,30.18,NNE,22,0.0,0.0,85,0.00,,,0.00,WUHU21623XXSP,2013-08-17 11:14:00,
2013-08-17 06:19:00,55.2,51.0,30.18,NNE,22,0.0,0.0,86,0.00,,,0.00,WUHU21623XXSP,2013-08-17 11:19:00,
2013-08-17 06:24:00,55.2,51.0,30.18,NNE,22,0.0,0.0,86,0.00,,,0.00,WUHU21623XXSP,2013-08-17 11:24:00,
2013-08-17 06:29:00,55.2,51.0,30.18,NNE,22,0.0,0.0,86,0.00,,,0.00,WUHU21623XXSP,2013-08-17 11:29:00,
2013-08-17 06:34:00,55.2,51.0,30.18,NNE,22,0.0,0.0,86,0.00,,,0.00,WUHU21623XXSP,2013-08-17 11:34:00,
2013-08-17 06:39:00,55.0,50.9,30.18,NNE,22,0.0,0.0,86,0.00,,,0.00,WUHU21623XXSP,2013-08-17 11:39:00,
2013-08-17 06:44:00,55.0,50.9,30.18,NNE,22,0.0,0.0,86,0.00,,,0.00,WUHU21623XXSP,2013-08-17 11:44:00,
2013-08-17 06:49:00,55.0,50.9,30.18,NNE,22,0.0,0.0,86,0.00,,,0.00,WUHU21623XXSP,2013-08-17 11:49:00,
2013-08-17 06:54:00,55.0,50.9,30.18,NNE,22,0.0,0.0,86,0.00,,,0.00,WUHU21623XXSP,2013-08-17 11:54:00,
2013-08-17 06:59:00,55.0,50.9,30.18,NNE,22,0.0,0.0,86,0.00,,,0.00,WUHU21623XXSP,2013-08-17 11:59:00,
2013-08-17 07:04:00,55.0,50.9,30.18,NNE,22,0.0,0.0,86,0.00,,,0.00,WUHU21623XXSP,2013-08-17 12:04:00,
2013-08-17 07:09:00,55.0,50.9,30.18,NNE,22,0.0,0.0,86,0.00,,,0.00,WUHU21623XXSP,2013-08-17 12:09:00,
2013-08-17 07:14:00,55.0,50.9,30.18,NNE,22,0.0,0.0,86,0.00,,,0.00,WUHU21623XXSP,2013-08-17 12:14:00,
2013-08-17 07:19:00,55.0,50.9,30.18,NNE,22,0.0,0.0,86,0.00,,,0.00,WUHU21623XXSP,2013-08-17 12:19:00,
2013-08-17 07:24:00,55.2,51.0,30.19,NNE,22,0.0,0.0,86,0.00,,,0.00,WUHU21623XXSP,2013-08-17 12:24:00,
2013-08-17 07:29:00,55.2,51.0,30.19,NNE,22,0.0,0.0,86,0.00,,,0.00,WUHU21623XXSP,2013-08-17 12:29:00,
2013-08-17 07:34:00,55.6,51.7,30.19,NNE,22,0.0,0.0,87,0.00,,,0.00,WUHU21623XXSP,2013-08-17 12:34:00,
2013-08-17 07:39:00,55.9,52.1,30.19,NNE,22,0.0,0.0,87,0.00,,,0.00,WUHU21623XXSP,2013-08-17 12:39:00,
2013-08-17 07:44:00,55.9,52.1,30.19,NNE,22,0.0,0.0,87,0.00,,,0.00,WUHU21623XXSP,2013-08-17 12:44:00,
2013-08-17 07:49:00,56.3,52.4,30.19,NNE,22,0.0,0.0,87,0.00,,,0.00,WUHU21623XXSP,2013-08-17 12:49:00,
2013-08-17 07:54:00,56.5,52.6,30.19,NNE,22,0.0,0.0,87,0.00,,,0.00,WUHU21623XXSP,2013-08-17 12:54:00,
2013-08-17 07:59:00,56.8,53.0,30.19,NNE,22,0.0,0.0,87,0.00,,,0.00,WUHU21623XXSP,2013-08-17 12:59:00,
2013-08-17 08:04:00,57.0,53.2,30.20,NNE,22,0.0,0.0,87,0.00,,,0.00,WUHU21623XXSP,2013-08-17 13:04:00,
2013-08-17 08:09:00,57.4,53.5,30.20,NNE,22,0.0,0.0,87,0.00,,,0.00,WUHU21623XXSP,2013-08-17 13:09:00,
2013-08-17 08:14:00,57.9,54.4,30.20,NNE,22,0.0,0.0,88,0.00,,,0.00,WUHU21623XXSP,2013-08-17 13:14:00,
2013-08-17 08:19:00,58.3,54.8,30.20,NNE,22,0.0,0.0,88,0.00,,,0.00,WUHU21623XXSP,2013-08-17 13:19:00,
2013-08-17 08:24:00,58.8,55.3,30.20,NNE,22,0.0,0.0,88,0.00,,,0.00,WUHU21623XXSP,2013-08-17 13:24:00,
2013-08-17 08:29:00,58.8,55.3,30.20,NNE,22,0.0,0.0,88,0.00,,,0.00,WUHU21623XXSP,2013-08-17 13:29:00,
2013-08-17 08:34:00,59.5,56.0,30.20,NNE,22,0.0,0.0,88,0.00,,,0.00,WUHU21623XXSP,2013-08-17 13:34:00,
2013-08-17 08:39:00,59.9,56.4,30.20,NNE,22,0.0,0.0,88,0.00,,,0.00,WUHU21623XXSP,2013-08-17 13:39:00,
2013-08-17 08:44:00,60.4,56.9,30.20,NNE,22,0.0,0.0,88,0.00,,,0.00,WUHU21623XXSP,2013-08-17 13:44:00,
2013-08-17 08:49:00,60.8,57.3,30.20,NNE,22,0.0,0.0,88,0.00,,,0.00,WUHU21623XXSP,2013-08-17 13:49:00,
2013-08-17 08:54:00,61.3,57.8,30.20,NNE,22,0.0,0.0,88,0.00,,,0.00,WUHU21623XXSP,2013-08-17 13:54:00,
2013-08-17 08:59:00,61.5,58.0,30.20,NNE,22,0.0,0.0,88,0.00,,,0.00,WUHU21623XXSP,2013-08-17 13:59:00,
2013-08-17 09:04:00,61.9,58.0,30.20,NNE,22,0.0,0.0,87,0.00,,,0.00,WUHU21623XXSP,2013-08-17 14:04:00,
2013-08-17 09:09:00,62.2,58.3,30.20,NNE,22,0.0,0.0,87,0.00,,,0.00,WUHU21623XXSP,2013-08-17 14:09:00,
2013-08-17 09:14:00,62.6,58.7,30.20,NNE,22,0.0,0.0,87,0.00,,,0.00,WUHU21623XXSP,2013-08-17 14:14:00,
2013-08-17 09:19:00,63.3,59.1,30.21,NNE,22,0.0,0.0,86,0.00,,,0.00,WUHU21623XXSP,2013-08-17 14:19:00,
2013-08-17 09:24:00,63.5,58.9,30.21,NNE,22,0.0,0.0,85,0.00,,,0.00,WUHU21623XXSP,2013-08-17 14:24:00,
2013-08-17 09:29:00,64.0,59.5,30.21,NNE,22,0.0,0.0,85,0.00,,,0.00,WUHU21623XXSP,2013-08-17 14:29:00,
2013-08-17 09:34:00,64.6,59.6,30.20,NNE,22,0.0,0.0,84,0.00,,,0.00,WUHU21623XXSP,2013-08-17 14:34:00,
2013-08-17 09:39:00,64.8,59.6,30.20,NNE,22,0.0,0.0,84,0.00,,,0.00,WUHU21623XXSP,2013-08-17 14:39:00,
2013-08-17 09:44:00,65.1,59.8,30.20,NNE,22,0.0,0.0,83,0.00,,,0.00,WUHU21623XXSP,2013-08-17 14:44:00,
2013-08-17 09:49:00,65.7,60.3,30.20,NNE,22,0.0,0.0,83,0.00,,,0.00,WUHU21623XXSP,2013-08-17 14:49:00,
2013-08-17 09:54:00,66.0,60.4,30.20,NNE,22,0.0,0.0,82,0.00,,,0.00,WUHU21623XXSP,2013-08-17 14:54:00,
2013-08-17 09:59:00,66.2,60.5,30.20,NNE,22,0.0,0.0,82,0.00,,,0.00,WUHU21623XXSP,2013-08-17 14:59:00,
2013-08-17 10:04:00,66.6,60.6,30.20,NNE,22,0.0,0.0,81,0.00,,,0.00,WUHU21623XXSP,2013-08-17 15:04:00,
2013-08-17 10:09:00,66.9,60.9,30.21,NNE,22,0.0,0.0,81,0.00,,,0.00,WUHU21623XXSP,2013-08-17 15:09:00,
2013-08-17 10:14:00,67.3,61.0,30.21,NNE,22,0.0,0.0,80,0.00,,,0.00,WUHU21623XXSP,2013-08-17 15:14:00,
2013-08-17 10:19:00,67.8,61.3,30.21,NNE,22,0.0,0.0,80,0.00,,,0.00,WUHU21623XXSP,2013-08-17 15:19:00,
2013-08-17 10:24:00,68.2,61.5,30.21,ESE,112,0.0,0.0,79,0.00,,,0.00,WUHU21623XXSP,2013-08-17 15:24:00,
2013-08-17 10:29:00,68.5,61.4,30.20,ESE,112,0.0,0.0,78,0.00,,,0.00,WUHU21623XXSP,2013-08-17 15:29:00,
2013-08-17 10:34:00,68.7,61.2,30.20,ESE,112,0.0,0.0,77,0.00,,,0.00,WUHU21623XXSP,2013-08-17 15:34:00,
2013-08-17 10:39:00,69.1,61.4,30.20,ENE,67,0.0,0.0,77,0.00,,,0.00,WUHU21623XXSP,2013-08-17 15:39:00,
2013-08-17 10:44:00,69.3,61.3,30.20,NE,45,0.0,0.0,76,0.00,,,0.00,WUHU21623XXSP,2013-08-17 15:44:00,
2013-08-17 10:50:00,69.6,61.3,30.20,NE,45,0.0,0.0,75,0.00,,,0.00,WUHU21623XXSP,2013-08-17 15:50:00,
2013-08-17 10:55:00,70.0,61.6,30.20,NE,45,0.0,0.0,75,0.00,,,0.00,WUHU21623XXSP,2013-08-17 15:55:00,
2013-08-17 11:00:00,70.3,62.0,30.20,NE,45,0.0,0.0,75,0.00,,,0.00,WUHU21623XXSP,2013-08-17 16:00:00,
2013-08-17 11:05:00,70.9,61.8,30.20,NE,45,0.0,0.0,73,0.00,,,0.00,WUHU21623XXSP,2013-08-17 16:05:00,
2013-08-17 11:10:00,71.2,61.8,30.20,NE,45,0.0,0.0,73,0.00,,,0.00,WUHU21623XXSP,2013-08-17 16:10:00,
2013-08-17 11:15:00,71.2,61.4,30.20,NE,45,0.0,0.0,71,0.00,,,0.00,WUHU21623XXSP,2013-08-17 16:15:00,
2013-08-17 11:20:00,71.4,61.5,30.21,ENE,67,0.0,0.0,71,0.00,,,0.00,WUHU21623XXSP,2013-08-17 16:20:00,
2013-08-17 11:25:00,71.4,61.5,30.20,ENE,67,0.0,0.0,71,0.00,,,0.00,WUHU21623XXSP,2013-08-17 16:25:00,
2013-08-17 11:30:00,71.8,61.9,30.20,ENE,67,0.0,0.0,71,0.00,,,0.00,WUHU21623XXSP,2013-08-17 16:30:00,
2013-08-17 11:35:00,72.0,61.7,30.20,NE,45,0.0,0.0,70,0.00,,,0.00,WUHU21623XXSP,2013-08-17 16:35:00,
2013-08-17 11:40:00,72.0,61.7,30.19,NE,45,0.0,0.0,70,0.00,,,0.00,WUHU21623XXSP,2013-08-17 16:40:00,
2013-08-17 11:45:00,72.0,61.3,30.20,NE,45,0.0,0.0,69,0.00,,,0.00,WUHU21623XXSP,2013-08-17 16:45:00,
2013-08-17 11:50:00,71.8,60.6,30.20,ENE,67,0.0,0.0,68,0.00,,,0.00,WUHU21623XXSP,2013-08-17 16:50:00,
2013-08-17 11:55:00,71.8,60.6,30.20,ENE,67,0.0,0.0,68,0.00,,,0.00,WUHU21623XXSP,2013-08-17 16:55:00,
2013-08-17 12:00:00,72.0,60.8,30.20,ENE,67,0.0,0.0,68,0.00,,,0.00,WUHU21623XXSP,2013-08-17 17:00:00,
2013-08-17 12:05:00,72.3,60.7,30.20,ENE,67,0.0,0.0,67,0.00,,,0.00,WUHU21623XXSP,2013-08-17 17:05:00,
2013-08-17 12:10:00,72.5,60.7,30.19,NE,45,0.0,0.0,67,0.00,,,0.00,WUHU21623XXSP,2013-08-17 17:10:00,
2013-08-17 12:15:00,72.5,60.9,30.19,NE,45,0.0,0.0,67,0.00,,,0.00,WUHU21623XXSP,2013-08-17 17:15:00,
2013-08-17 12:20:00,72.5,60.5,30.19,NE,45,0.0,0.0,66,0.00,,,0.00,WUHU21623XXSP,2013-08-17 17:20:00,
2013-08-17 12:25:00,72.5,60.5,30.19,NE,45,0.0,0.0,66,0.00,,,0.00,WUHU21623XXSP,2013-08-17 17:25:00,
2013-08-17 12:30:00,72.5,60.5,30.19,North,0,0.0,0.0,66,0.00,,,0.00,WUHU21623XXSP,2013-08-17 17:30:00,
2013-08-17 12:35:00,72.7,61.1,30.19,NNE,22,0.0,0.0,67,0.00,,,0.00,WUHU21623XXSP,2013-08-17 17:35:00,
2013-08-17 12:40:00,73.0,61.1,30.19,NNE,22,0.0,0.0,67,0.00,,,0.00,WUHU21623XXSP,2013-08-17 17:40:00,
2013-08-17 12:45:00,73.0,61.4,30.19,NNE,22,0.0,0.0,65,0.00,,,0.00,WUHU21623XXSP,2013-08-17 17:45:00,
2013-08-17 12:50:00,73.0,60.5,30.19,NNE,22,0.0,0.0,65,0.00,,,0.00,WUHU21623XXSP,2013-08-17 17:50:00,
2013-08-17 12:55:00,73.2,61.2,30.18,NNE,22,0.0,0.0,65,0.00,,,0.00,WUHU21623XXSP,2013-08-17 17:55:00,
2013-08-17 13:00:00,73.6,61.1,30.19,NNE,22,0.0,0.0,65,0.00,,,0.00,WUHU21623XXSP,2013-08-17 18:00:00,
2013-08-17 13:05:00,73.6,61.1,30.19,NNE,22,0.0,0.0,65,0.00,,,0.00,WUHU21623XXSP,2013-08-17 18:05:00,
2013-08-17 13:10:00,73.8,60.8,30.19,NNE,22,0.0,0.0,64,0.00,,,0.00,WUHU21623XXSP,2013-08-17 18:10:00,
2013-08-17 13:15:00,73.9,60.9,30.19,NNE,22,0.0,0.0,64,0.00,,,0.00,WUHU21623XXSP,2013-08-17 18:15:00,
2013-08-17 13:20:00,74.7,62.5,30.18,NNE,22,0.0,0.0,66,0.00,,,0.00,WUHU21623XXSP,2013-08-17 18:20:00,
2013-08-17 13:25:00,75.0,62.4,30.18,NE,45,0.0,0.0,65,0.00,,,0.00,WUHU21623XXSP,2013-08-17 18:25:00,
2013-08-17 13:30:00,75.9,62.0,30.18,NNE,22,0.0,0.0,61,0.00,,,0.00,WUHU21623XXSP,2013-08-17 18:30:00,
2013-08-17 13:35:00,76.6,62.2,30.18,NE,45,0.0,0.0,61,0.00,,,0.00,WUHU21623XXSP,2013-08-17 18:35:00,
2013-08-17 13:40:00,76.8,62.3,30.18,NE,45,0.0,0.0,61,0.00,,,0.00,WUHU21623XXSP,2013-08-17 18:40:00,
2013-08-17 13:45:00,77.5,62.6,30.18,ENE,67,7.4,7.4,60,0.00,,,0.00,WUHU21623XXSP,2013-08-17 18:45:00,
2013-08-17 13:50:00,77.9,61.8,30.18,NE,45,0.0,7.4,57,0.00,,,0.00,WUHU21623XXSP,2013-08-17 18:50:00,
2013-08-17 13:55:00,78.1,62.1,30.17,SE,135,0.0,7.4,58,0.00,,,0.00,WUHU21623XXSP,2013-08-17 18:55:00,
2013-08-17 14:00:00,78.6,62.6,30.17,ESE,112,0.0,0.0,57,0.00,,,0.00,WUHU21623XXSP,2013-08-17 19:00:00,
2013-08-17 14:05:00,78.1,61.6,30.17,ESE,112,0.0,0.0,57,0.00,,,0.00,WUHU21623XXSP,2013-08-17 19:05:00,
2013-08-17 14:10:00,77.4,61.4,30.17,ESE,112,0.0,0.0,57,0.00,,,0.00,WUHU21623XXSP,2013-08-17 19:10:00,
2013-08-17 14:15:00,77.2,61.2,30.16,ESE,112,0.0,13.2,58,0.00,,,0.00,WUHU21623XXSP,2013-08-17 19:15:00,
2013-08-17 14:20:00,77.5,61.9,30.16,ENE,67,0.0,13.2,59,0.00,,,0.00,WUHU21623XXSP,2013-08-17 19:20:00,
2013-08-17 14:25:00,77.5,61.6,30.16,NNE,22,0.0,0.0,58,0.00,,,0.00,WUHU21623XXSP,2013-08-17 19:25:00,
2013-08-17 14:30:00,76.8,61.2,30.16,NNE,22,0.0,0.0,58,0.00,,,0.00,WUHU21623XXSP,2013-08-17 19:30:00,
2013-08-17 14:35:00,77.2,60.9,30.16,NNE,22,0.0,0.0,58,0.00,,,0.00,WUHU21623XXSP,2013-08-17 19:35:00,
2013-08-17 14:40:00,77.5,61.9,30.16,NNE,22,0.0,0.0,58,0.00,,,0.00,WUHU21623XXSP,2013-08-17 19:40:00,
2013-08-17 14:45:00,77.2,61.2,30.16,NNE,22,0.0,0.0,58,0.00,,,0.00,WUHU21623XXSP,2013-08-17 19:45:00,
2013-08-17 14:50:00,77.0,61.2,30.16,NNE,22,0.0,0.0,58,0.00,,,0.00,WUHU21623XXSP,2013-08-17 19:50:00,
2013-08-17 14:55:00,76.8,60.9,30.15,NNE,22,0.0,0.0,58,0.00,,,0.00,WUHU21623XXSP,2013-08-17 19:55:00,
2013-08-17 15:00:00,76.3,60.9,30.15,NNE,22,0.0,0.0,59,0.00,,,0.00,WUHU21623XXSP,2013-08-17 20:00:00,
2013-08-17 15:05:00,75.9,60.7,30.15,NNE,22,0.0,0.0,59,0.00,,,0.00,WUHU21623XXSP,2013-08-17 20:05:00,
2013-08-17 15:10:00,75.9,61.1,30.15,NNE,22,0.0,0.0,60,0.00,,,0.00,WUHU21623XXSP,2013-08-17 20:10:00,
2013-08-17 15:15:00,75.6,60.3,30.15,NNE,22,0.0,0.0,59,0.00,,,0.00,WUHU21623XXSP,2013-08-17 20:15:00,
2013-08-17 15:20:00,75.9,61.1,30.15,NNE,22,0.0,0.0,60,0.00,,,0.00,WUHU21623XXSP,2013-08-17 20:20:00,
2013-08-17 15:25:00,76.3,60.9,30.14,NE,45,0.0,0.0,59,0.00,,,0.00,WUHU21623XXSP,2013-08-17 20:25:00,
2013-08-17 15:30:00,76.8,61.2,30.14,NE,45,0.0,0.0,59,0.00,,,0.00,WUHU21623XXSP,2013-08-17 20:30:00,
2013-08-17 15:35:00,77.4,61.6,30.14,NE,45,0.0,0.0,58,0.00,,,0.00,WUHU21623XXSP,2013-08-17 20:35:00,
2013-08-17 15:40:00,77.4,61.4,30.13,NNE,22,0.0,0.0,58,0.00,,,0.00,WUHU21623XXSP,2013-08-17 20:40:00,
2013-08-17 15:45:00,77.4,61.4,30.13,NE,45,0.0,9.4,58,0.00,,,0.00,WUHU21623XXSP,2013-08-17 20:45:00,
2013-08-17 15:50:00,77.5,61.6,30.13,SSE,157,0.0,9.4,58,0.00,,,0.00,WUHU21623XXSP,2013-08-17 20:50:00,
2013-08-17 15:53:00,77.5,61.6,30.13,SSE,157,0.0,0.0,57,0.00,,,0.00,WUHU21623XXSP,2013-08-17 20:53:00,
2013-08-17 15:59:00,77.5,61.1,30.13,SSE,157,0.0,0.0,57,0.00,,,0.00,WUHU21623XXSP,2013-08-17 20:59:00,
2013-08-17 16:08:00,77.7,60.7,30.13,South,180,13.9,13.9,56,0.00,,,0.00,WUHU21623XXSP,2013-08-17 21:08:00,
2013-08-17 16:14:00,78.1,60.9,30.13,South,180,0.0,13.9,57,0.00,,,0.00,WUHU21623XXSP,2013-08-17 21:14:00,
2013-08-17 16:23:00,78.1,61.1,30.13,SSE,157,0.0,12.1,56,0.00,,,0.00,WUHU21623XXSP,2013-08-17 21:23:00,
2013-08-17 16:29:00,77.7,61.2,30.13,SSE,157,5.6,5.6,57,0.00,,,0.00,WUHU21623XXSP,2013-08-17 21:29:00,
2013-08-17 16:38:00,78.1,61.4,30.12,NE,45,0.0,12.8,57,0.00,,,0.00,WUHU21623XXSP,2013-08-17 21:38:00,
2013-08-17 16:44:00,78.1,61.6,30.12,NE,45,0.0,10.3,57,0.00,,,0.00,WUHU21623XXSP,2013-08-17 21:44:00,
2013-08-17 16:53:00,77.4,60.9,30.13,NNE,22,0.0,0.0,57,0.00,,,0.00,WUHU21623XXSP,2013-08-17 21:53:00,
2013-08-17 16:59:00,77.5,61.1,30.13,NNE,22,0.0,0.0,57,0.00,,,0.00,WUHU21623XXSP,2013-08-17 21:59:00,
2013-08-17 17:08:00,77.4,60.9,30.13,NNE,22,0.0,0.0,57,0.00,,,0.00,WUHU21623XXSP,2013-08-17 22:08:00,
2013-08-17 17:14:00,77.2,60.7,30.12,ENE,67,0.0,0.0,57,0.00,,,0.00,WUHU21623XXSP,2013-08-17 22:14:00,
2013-08-17 17:21:00,76.6,60.4,30.12,ENE,67,0.0,0.0,57,0.00,,,0.00,WUHU21623XXSP,2013-08-17 22:21:00,
2013-08-17 17:32:00,76.1,60.2,30.13,NE,45,0.0,0.0,58,0.00,,,0.00,WUHU21623XXSP,2013-08-17 22:32:00,
2013-08-17 17:37:00,75.9,60.2,30.12,NE,45,0.0,0.0,58,0.00,,,0.00,WUHU21623XXSP,2013-08-17 22:37:00,
2013-08-17 17:42:00,75.9,60.1,30.12,NE,45,0.0,0.0,58,0.00,,,0.00,WUHU21623XXSP,2013-08-17 22:42:00,
2013-08-17 17:53:00,75.9,60.1,30.12,NE,45,0.0,0.0,58,0.00,,,0.00,WUHU21623XXSP,2013-08-17 22:53:00,
2013-08-17 17:58:00,75.9,60.1,30.12,NE,45,0.0,0.0,58,0.00,,,0.00,WUHU21623XXSP,2013-08-17 22:58:00,
2013-08-17 18:03:00,75.7,59.9,30.12,NE,45,0.0,0.0,58,0.00,,,0.00,WUHU21623XXSP,2013-08-17 23:03:00,
2013-08-17 18:08:00,75.7,59.9,30.12,NE,45,0.0,0.0,58,0.00,,,0.00,WUHU21623XXSP,2013-08-17 23:08:00,
2013-08-17 18:13:00,75.7,60.4,30.12,NE,45,0.0,0.0,59,0.00,,,0.00,WUHU21623XXSP,2013-08-17 23:13:00,
2013-08-17 18:18:00,75.7,60.4,30.12,NE,45,0.0,0.0,59,0.00,,,0.00,WUHU21623XXSP,2013-08-17 23:18:00,
2013-08-17 18:23:00,75.6,60.8,30.11,ENE,67,0.0,0.0,60,0.00,,,0.00,WUHU21623XXSP,2013-08-17 23:23:00,
2013-08-17 18:28:00,75.4,60.8,30.11,ENE,67,0.0,0.0,60,0.00,,,0.00,WUHU21623XXSP,2013-08-17 23:28:00,
2013-08-17 18:33:00,75.4,60.1,30.12,NE,45,0.0,0.0,59,0.00,,,0.00,WUHU21623XXSP,2013-08-17 23:33:00,
2013-08-17 18:38:00,75.0,60.3,30.11,ENE,67,0.0,0.0,60,0.00,,,0.00,WUHU21623XXSP,2013-08-17 23:38:00,
2013-08-17 18:43:00,75.0,60.3,30.12,NE,45,0.0,0.0,60,0.00,,,0.00,WUHU21623XXSP,2013-08-17 23:43:00,
2013-08-17 18:48:00,74.8,60.1,30.11,NE,45,0.0,0.0,60,0.00,,,0.00,WUHU21623XXSP,2013-08-17 23:48:00,
2013-08-17 18:53:00,74.7,60.1,30.11,NE,45,0.0,0.0,60,0.00,,,0.00,WUHU21623XXSP,2013-08-17 23:53:00,
2013-08-17 18:58:00,74.5,59.7,30.11,NE,45,0.0,0.0,60,0.00,,,0.00,WUHU21623XXSP,2013-08-17 23:58:00,
2013-08-17 19:03:00,74.3,60.0,30.12,NE,45,0.0,0.0,61,0.00,,,0.00,WUHU21623XXSP,2013-08-18 00:03:00,
2013-08-17 19:08:00,74.3,60.0,30.12,NE,45,0.0,0.0,61,0.00,,,0.00,WUHU21623XXSP,2013-08-18 00:08:00,
2013-08-17 19:13:00,74.1,60.2,30.12,NE,45,0.0,0.0,62,0.00,,,0.00,WUHU21623XXSP,2013-08-18 00:13:00,
2013-08-17 19:18:00,74.1,60.2,30.12,NE,45,0.0,0.0,62,0.00,,,0.00,WUHU21623XXSP,2013-08-18 00:18:00,
2013-08-17 19:23:00,73.9,60.5,30.12,NE,45,0.0,0.0,63,0.00,,,0.00,WUHU21623XXSP,2013-08-18 00:23:00,
2013-08-17 19:28:00,73.8,60.3,30.12,NE,45,0.0,0.0,63,0.00,,,0.00,WUHU21623XXSP,2013-08-18 00:28:00,
2013-08-17 19:33:00,73.6,60.2,30.12,NE,45,0.0,0.0,63,0.00,,,0.00,WUHU21623XXSP,2013-08-18 00:33:00,
2013-08-17 19:38:00,73.2,59.8,30.12,NE,45,0.0,0.0,63,0.00,,,0.00,WUHU21623XXSP,2013-08-18 00:38:00,
2013-08-17 19:43:00,73.0,60.1,30.12,NE,45,0.0,0.0,64,0.00,,,0.00,WUHU21623XXSP,2013-08-18 00:43:00,
2013-08-17 19:48:00,72.9,60.1,30.12,NE,45,0.0,0.0,63,0.00,,,0.00,WUHU21623XXSP,2013-08-18 00:48:00,
2013-08-17 19:53:00,72.5,59.6,30.12,NE,45,0.0,0.0,64,0.00,,,0.00,WUHU21623XXSP,2013-08-18 00:53:00,
2013-08-17 19:58:00,72.3,59.4,30.12,NE,45,0.0,0.0,64,0.00,,,0.00,WUHU21623XXSP,2013-08-18 00:58:00,
2013-08-17 20:03:00,72.3,59.4,30.12,NE,45,0.0,0.0,64,0.00,,,0.00,WUHU21623XXSP,2013-08-18 01:03:00,
2013-08-17 20:08:00,72.0,59.5,30.12,NE,45,0.0,0.0,65,0.00,,,0.00,WUHU21623XXSP,2013-08-18 01:08:00,
2013-08-17 20:13:00,71.8,59.3,30.12,NE,45,0.0,0.0,65,0.00,,,0.00,WUHU21623XXSP,2013-08-18 01:13:00,
2013-08-17 20:18:00,71.4,59.0,30.12,NE,45,0.0,0.0,65,0.00,,,0.00,WUHU21623XXSP,2013-08-18 01:18:00,
2013-08-17 20:23:00,71.4,59.0,30.12,NE,45,0.0,0.0,65,0.00,,,0.00,WUHU21623XXSP,2013-08-18 01:23:00,
2013-08-17 20:28:00,71.2,59.3,30.12,NE,45,0.0,0.0,66,0.00,,,0.00,WUHU21623XXSP,2013-08-18 01:28:00,
2013-08-17 20:33:00,71.1,59.1,30.12,NE,45,0.0,0.0,66,0.00,,,0.00,WUHU21623XXSP,2013-08-18 01:33:00,
2013-08-17 20:38:00,70.9,58.9,30.13,NE,45,0.0,0.0,66,0.00,,,0.00,WUHU21623XXSP,2013-08-18 01:38:00,
2013-08-17 20:43:00,70.7,58.9,30.13,NE,45,0.0,0.0,67,0.00,,,0.00,WUHU21623XXSP,2013-08-18 01:43:00,
2013-08-17 20:48:00,70.5,59.0,30.13,NE,45,0.0,0.0,67,0.00,,,0.00,WUHU21623XXSP,2013-08-18 01:48:00,
2013-08-17 20:53:00,70.2,58.6,30.13,NE,45,0.0,0.0,67,0.00,,,0.00,WUHU21623XXSP,2013-08-18 01:53:00,
2013-08-17 20:58:00,70.0,58.6,30.13,NE,45,0.0,0.0,67,0.00,,,0.00,WUHU21623XXSP,2013-08-18 01:58:00,
2013-08-17 21:03:00,69.6,58.5,30.13,NE,45,0.0,0.0,68,0.00,,,0.00,WUHU21623XXSP,2013-08-18 02:03:00,
2013-08-17 21:08:00,69.4,58.4,30.13,NE,45,0.0,0.0,68,0.00,,,0.00,WUHU21623XXSP,2013-08-18 02:08:00,
2013-08-17 21:13:00,69.1,58.5,30.13,NE,45,0.0,0.0,69,0.00,,,0.00,WUHU21623XXSP,2013-08-18 02:13:00,
2013-08-17 21:18:00,68.9,58.3,30.13,NE,45,0.0,0.0,69,0.00,,,0.00,WUHU21623XXSP,2013-08-18 02:18:00,
2013-08-17 21:23:00,68.5,58.1,30.13,NE,45,0.0,0.0,69,0.00,,,0.00,WUHU21623XXSP,2013-08-18 02:23:00,
2013-08-17 21:28:00,68.4,57.8,30.13,NE,45,0.0,0.0,69,0.00,,,0.00,WUHU21623XXSP,2013-08-18 02:28:00,
2013-08-17 21:33:00,68.0,57.7,30.14,NE,45,0.0,0.0,70,0.00,,,0.00,WUHU21623XXSP,2013-08-18 02:33:00,
2013-08-17 21:38:00,67.6,57.6,30.14,NE,45,0.0,0.0,70,0.00,,,0.00,WUHU21623XXSP,2013-08-18 02:38:00,
2013-08-17 21:43:00,67.3,57.9,30.14,NE,45,0.0,0.0,71,0.00,,,0.00,WUHU21623XXSP,2013-08-18 02:43:00,
2013-08-17 21:48:00,67.1,57.4,30.14,NE,45,0.0,0.0,71,0.00,,,0.00,WUHU21623XXSP,2013-08-18 02:48:00,
2013-08-17 21:53:00,66.7,57.4,30.14,NE,45,0.0,0.0,72,0.00,,,0.00,WUHU21623XXSP,2013-08-18 02:53:00,
2013-08-17 21:58:00,66.7,57.4,30.15,NE,45,0.0,0.0,72,0.00,,,0.00,WUHU21623XXSP,2013-08-18 02:58:00,
2013-08-17 22:03:00,66.4,57.1,30.15,NE,45,0.0,0.0,72,0.00,,,0.00,WUHU21623XXSP,2013-08-18 03:03:00,
2013-08-17 22:08:00,66.0,57.1,30.15,NE,45,0.0,0.0,73,0.00,,,0.00,WUHU21623XXSP,2013-08-18 03:08:00,
2013-08-17 22:13:00,66.0,57.1,30.15,NE,45,0.0,0.0,73,0.00,,,0.00,WUHU21623XXSP,2013-08-18 03:13:00,
2013-08-17 22:18:00,65.8,56.9,30.15,NE,45,0.0,0.0,74,0.00,,,0.00,WUHU21623XXSP,2013-08-18 03:18:00,
2013-08-17 22:23:00,65.5,56.9,30.15,NE,45,0.0,0.0,74,0.00,,,0.00,WUHU21623XXSP,2013-08-18 03:23:00,
2013-08-17 22:28:00,65.5,56.9,30.15,NE,45,0.0,0.0,74,0.00,,,0.00,WUHU21623XXSP,2013-08-18 03:28:00,
2013-08-17 22:33:00,65.3,56.8,30.15,NE,45,0.0,0.0,74,0.00,,,0.00,WUHU21623XXSP,2013-08-18 03:33:00,
2013-08-17 22:38:00,64.9,57.0,30.15,NE,45,0.0,0.0,75,0.00,,,0.00,WUHU21623XXSP,2013-08-18 03:38:00,
2013-08-17 22:43:00,64.8,57.0,30.15,NE,45,0.0,0.0,76,0.00,,,0.00,WUHU21623XXSP,2013-08-18 03:43:00,
2013-08-17 22:48:00,64.6,57.2,30.15,NE,45,0.0,0.0,77,0.00,,,0.00,WUHU21623XXSP,2013-08-18 03:48:00,
2013-08-17 22:53:00,64.6,57.2,30.15,NE,45,0.0,0.0,77,0.00,,,0.00,WUHU21623XXSP,2013-08-18 03:53:00,
2013-08-17 22:58:00,64.6,57.2,30.15,NE,45,0.0,0.0,77,0.00,,,0.00,WUHU21623XXSP,2013-08-18 03:58:00,
2013-08-17 23:03:00,64.6,57.2,30.15,NE,45,0.0,0.0,77,0.00,,,0.00,WUHU21623XXSP,2013-08-18 04:03:00,
2013-08-17 23:08:00,64.4,57.4,30.15,NE,45,0.0,0.0,78,0.00,,,0.00,WUHU21623XXSP,2013-08-18 04:08:00,
2013-08-17 23:13:00,64.2,57.2,30.15,NE,45,0.0,0.0,78,0.00,,,0.00,WUHU21623XXSP,2013-08-18 04:13:00,
2013-08-17 23:18:00,64.6,57.9,30.15,NE,45,0.0,0.0,79,0.00,,,0.00,WUHU21623XXSP,2013-08-18 04:18:00,
2013-08-17 23:23:00,64.6,57.9,30.15,NE,45,0.0,0.0,79,0.00,,,0.00,WUHU21623XXSP,2013-08-18 04:23:00,
2013-08-17 23:28:00,64.6,57.9,30.15,NE,45,0.0,0.0,79,0.00,,,0.00,WUHU21623XXSP,2013-08-18 04:28:00,
2013-08-17 23:33:00,64.6,57.9,30.15,NE,45,0.0,0.0,79,0.00,,,0.00,WUHU21623XXSP,2013-08-18 04:33:00,
2013-08-17 23:38:00,64.6,57.9,30.15,NE,45,0.0,0.0,79,0.00,,,0.00,WUHU21623XXSP,2013-08-18 04:38:00,
2013-08-17 23:43:00,64.4,57.7,30.15,NE,45,0.0,0.0,79,0.00,,,0.00,WUHU21623XXSP,2013-08-18 04:43:00,
2013-08-17 23:48:00,64.2,57.6,30.15,NE,45,0.0,0.0,79,0.00,,,0.00,WUHU21623XXSP,2013-08-18 04:48:00,
2013-08-17 23:53:00,64.2,57.6,30.15,NE,45,0.0,0.0,79,0.00,,,0.00,WUHU21623XXSP,2013-08-18 04:53:00,
2013-08-17 23:58:00,64.0,57.4,30.15,NE,45,0.0,0.0,79,0.00,,,0.00,WUHU21623XXSP,2013-08-18 04:58:00,